sensor_id;sensor_type;location;lat;lon;timestamp;P1;durP1;ratioP1;P2;durP2;ratioP2
18726;SDS011;9492;51.888;5.186;2023-05-10T00:01:55;23.50;;;16.73;;
18726;SDS011;9492;51.888;5.186;2023-05-10T00:04:21;25.27;;;17.43;;
18726;SDS011;9492;51.888;5.186;2023-05-10T00:06:47;25.57;;;16.43;;
18726;SDS011;9492;51.888;5.186;2023-05-10T00:09:13;26.27;;;18.50;;
18726;SDS011;9492;51.888;5.186;2023-05-10T00:11:39;24.43;;;16.00;;
18726;SDS011;9492;51.888;5.186;2023-05-10T00:14:05;22.50;;;16.57;;
18726;SDS011;9492;51.888;5.186;2023-05-10T00:16:31;25.23;;;19.37;;
18726;SDS011;9492;51.888;5.186;2023-05-10T00:18:57;28.23;;;19.17;;
18726;SDS011;9492;51.888;5.186;2023-05-10T00:21:23;27.27;;;17.90;;
18726;SDS011;9492;51.888;5.186;2023-05-10T00:23:49;29.70;;;19.13;;
18726;SDS011;9492;51.888;5.186;2023-05-10T00:26:15;27.77;;;20.23;;
18726;SDS011;9492;51.888;5.186;2023-05-10T00:28:41;27.37;;;18.80;;
18726;SDS011;9492;51.888;5.186;2023-05-10T00:31:07;27.10;;;19.47;;
18726;SDS011;9492;51.888;5.186;2023-05-10T00:33:33;33.60;;;22.13;;
18726;SDS011;9492;51.888;5.186;2023-05-10T00:35:59;30.63;;;20.20;;
18726;SDS011;9492;51.888;5.186;2023-05-10T00:38:25;32.57;;;21.53;;
18726;SDS011;9492;51.888;5.186;2023-05-10T00:40:51;29.47;;;20.43;;
18726;SDS011;9492;51.888;5.186;2023-05-10T00:43:17;30.43;;;20.03;;
18726;SDS011;9492;51.888;5.186;2023-05-10T00:45:43;27.83;;;19.70;;
18726;SDS011;9492;51.888;5.186;2023-05-10T00:48:09;30.57;;;20.23;;
18726;SDS011;9492;51.888;5.186;2023-05-10T00:50:35;31.20;;;21.53;;
18726;SDS011;9492;51.888;5.186;2023-05-10T00:53:02;30.37;;;22.83;;
18726;SDS011;9492;51.888;5.186;2023-05-10T00:55:28;28.17;;;19.83;;
18726;SDS011;9492;51.888;5.186;2023-05-10T00:57:54;29.30;;;20.47;;
18726;SDS011;9492;51.888;5.186;2023-05-10T01:00:21;31.90;;;23.00;;
18726;SDS011;9492;51.888;5.186;2023-05-10T01:02:47;30.03;;;19.80;;
18726;SDS011;9492;51.888;5.186;2023-05-10T01:05:14;33.50;;;22.60;;
18726;SDS011;9492;51.888;5.186;2023-05-10T01:07:40;32.43;;;21.87;;
18726;SDS011;9492;51.888;5.186;2023-05-10T01:10:07;27.53;;;18.33;;
18726;SDS011;9492;51.888;5.186;2023-05-10T01:12:34;28.57;;;19.63;;
18726;SDS011;9492;51.888;5.186;2023-05-10T01:15:01;30.87;;;20.60;;
18726;SDS011;9492;51.888;5.186;2023-05-10T01:17:27;31.53;;;20.93;;
18726;SDS011;9492;51.888;5.186;2023-05-10T01:19:53;26.77;;;18.53;;
18726;SDS011;9492;51.888;5.186;2023-05-10T01:27:47;25.73;;;17.37;;
18726;SDS011;9492;51.888;5.186;2023-05-10T01:30:42;23.90;;;16.70;;
18726;SDS011;9492;51.888;5.186;2023-05-10T01:41:15;22.13;;;15.47;;
18726;SDS011;9492;51.888;5.186;2023-05-10T01:43:46;24.97;;;16.77;;
18726;SDS011;9492;51.888;5.186;2023-05-10T01:46:15;26.70;;;17.20;;
18726;SDS011;9492;51.888;5.186;2023-05-10T01:48:47;25.40;;;17.53;;
18726;SDS011;9492;51.888;5.186;2023-05-10T01:51:17;25.77;;;17.47;;
18726;SDS011;9492;51.888;5.186;2023-05-10T01:53:44;25.83;;;17.30;;
18726;SDS011;9492;51.888;5.186;2023-05-10T01:56:11;25.70;;;16.80;;
18726;SDS011;9492;51.888;5.186;2023-05-10T01:58:38;26.77;;;17.47;;
18726;SDS011;9492;51.888;5.186;2023-05-10T02:01:07;24.97;;;16.70;;
18726;SDS011;9492;51.888;5.186;2023-05-10T02:03:33;27.20;;;17.93;;
18726;SDS011;9492;51.888;5.186;2023-05-10T02:06:01;26.23;;;18.07;;
18726;SDS011;9492;51.888;5.186;2023-05-10T02:08:28;28.37;;;17.70;;
18726;SDS011;9492;51.888;5.186;2023-05-10T02:10:55;24.93;;;17.40;;
18726;SDS011;9492;51.888;5.186;2023-05-10T02:13:21;25.93;;;18.67;;
18726;SDS011;9492;51.888;5.186;2023-05-10T02:15:48;32.30;;;21.50;;
18726;SDS011;9492;51.888;5.186;2023-05-10T02:18:15;29.60;;;19.90;;
18726;SDS011;9492;51.888;5.186;2023-05-10T02:20:43;29.93;;;21.37;;
18726;SDS011;9492;51.888;5.186;2023-05-10T02:23:10;31.90;;;22.17;;
18726;SDS011;9492;51.888;5.186;2023-05-10T02:25:36;32.70;;;22.07;;
18726;SDS011;9492;51.888;5.186;2023-05-10T02:28:04;37.17;;;23.43;;
18726;SDS011;9492;51.888;5.186;2023-05-10T02:30:31;38.77;;;23.50;;
18726;SDS011;9492;51.888;5.186;2023-05-10T02:32:57;34.90;;;22.87;;
18726;SDS011;9492;51.888;5.186;2023-05-10T02:35:24;33.03;;;22.23;;
18726;SDS011;9492;51.888;5.186;2023-05-10T02:37:51;34.07;;;22.17;;
18726;SDS011;9492;51.888;5.186;2023-05-10T02:40:18;30.27;;;20.13;;
18726;SDS011;9492;51.888;5.186;2023-05-10T02:42:45;31.07;;;20.10;;
18726;SDS011;9492;51.888;5.186;2023-05-10T02:45:15;30.47;;;19.73;;
18726;SDS011;9492;51.888;5.186;2023-05-10T02:47:42;27.53;;;17.53;;
18726;SDS011;9492;51.888;5.186;2023-05-10T02:50:08;27.33;;;18.60;;
18726;SDS011;9492;51.888;5.186;2023-05-10T02:53:09;24.60;;;17.53;;
18726;SDS011;9492;51.888;5.186;2023-05-10T02:55:29;24.93;;;16.77;;
18726;SDS011;9492;51.888;5.186;2023-05-10T02:57:58;25.53;;;16.20;;
18726;SDS011;9492;51.888;5.186;2023-05-10T03:00:24;24.80;;;17.73;;
18726;SDS011;9492;51.888;5.186;2023-05-10T03:02:50;24.33;;;18.37;;
18726;SDS011;9492;51.888;5.186;2023-05-10T03:05:16;23.10;;;14.60;;
18726;SDS011;9492;51.888;5.186;2023-05-10T03:07:43;23.13;;;14.77;;
18726;SDS011;9492;51.888;5.186;2023-05-10T03:10:09;24.33;;;15.30;;
18726;SDS011;9492;51.888;5.186;2023-05-10T03:15:19;22.50;;;15.17;;
18726;SDS011;9492;51.888;5.186;2023-05-10T03:17:51;24.17;;;16.93;;
18726;SDS011;9492;51.888;5.186;2023-05-10T03:20:22;26.33;;;15.77;;
18726;SDS011;9492;51.888;5.186;2023-05-10T03:22:55;24.20;;;15.10;;
18726;SDS011;9492;51.888;5.186;2023-05-10T03:25:21;25.23;;;15.37;;
18726;SDS011;9492;51.888;5.186;2023-05-10T03:27:48;21.47;;;14.20;;
18726;SDS011;9492;51.888;5.186;2023-05-10T03:30:14;27.00;;;17.17;;
18726;SDS011;9492;51.888;5.186;2023-05-10T03:32:41;25.23;;;15.20;;
18726;SDS011;9492;51.888;5.186;2023-05-10T03:35:07;24.80;;;16.23;;
18726;SDS011;9492;51.888;5.186;2023-05-10T03:37:33;26.03;;;16.93;;
18726;SDS011;9492;51.888;5.186;2023-05-10T03:40:00;23.70;;;15.73;;
18726;SDS011;9492;51.888;5.186;2023-05-10T03:42:26;24.40;;;14.63;;
18726;SDS011;9492;51.888;5.186;2023-05-10T03:44:52;24.47;;;15.43;;
18726;SDS011;9492;51.888;5.186;2023-05-10T03:47:18;28.30;;;19.13;;
18726;SDS011;9492;51.888;5.186;2023-05-10T03:49:44;23.93;;;16.47;;
18726;SDS011;9492;51.888;5.186;2023-05-10T03:52:10;23.37;;;15.93;;
18726;SDS011;9492;51.888;5.186;2023-05-10T03:54:36;28.70;;;16.63;;
18726;SDS011;9492;51.888;5.186;2023-05-10T03:57:02;33.30;;;18.07;;
18726;SDS011;9492;51.888;5.186;2023-05-10T03:59:28;24.40;;;16.33;;
18726;SDS011;9492;51.888;5.186;2023-05-10T04:01:54;27.63;;;17.00;;
18726;SDS011;9492;51.888;5.186;2023-05-10T04:04:20;25.83;;;15.87;;
18726;SDS011;9492;51.888;5.186;2023-05-10T04:06:46;26.40;;;17.10;;
18726;SDS011;9492;51.888;5.186;2023-05-10T04:09:12;23.43;;;16.23;;
18726;SDS011;9492;51.888;5.186;2023-05-10T04:11:39;25.80;;;17.30;;
18726;SDS011;9492;51.888;5.186;2023-05-10T04:14:05;28.37;;;17.00;;
18726;SDS011;9492;51.888;5.186;2023-05-10T04:16:31;27.10;;;16.07;;
18726;SDS011;9492;51.888;5.186;2023-05-10T04:18:57;24.83;;;16.00;;
18726;SDS011;9492;51.888;5.186;2023-05-10T04:21:23;25.93;;;16.83;;
18726;SDS011;9492;51.888;5.186;2023-05-10T04:23:48;31.23;;;20.70;;
18726;SDS011;9492;51.888;5.186;2023-05-10T04:26:14;29.27;;;18.47;;
18726;SDS011;9492;51.888;5.186;2023-05-10T04:28:40;32.87;;;19.57;;
18726;SDS011;9492;51.888;5.186;2023-05-10T04:31:07;32.20;;;20.23;;
18726;SDS011;9492;51.888;5.186;2023-05-10T04:33:34;30.23;;;19.33;;
18726;SDS011;9492;51.888;5.186;2023-05-10T04:36:00;30.70;;;19.20;;
18726;SDS011;9492;51.888;5.186;2023-05-10T04:38:26;33.87;;;19.97;;
18726;SDS011;9492;51.888;5.186;2023-05-10T04:40:52;31.07;;;19.33;;
18726;SDS011;9492;51.888;5.186;2023-05-10T04:43:18;34.40;;;21.37;;
18726;SDS011;9492;51.888;5.186;2023-05-10T04:45:45;32.23;;;20.03;;
18726;SDS011;9492;51.888;5.186;2023-05-10T04:48:11;33.23;;;21.30;;
18726;SDS011;9492;51.888;5.186;2023-05-10T04:50:37;38.60;;;23.60;;
18726;SDS011;9492;51.888;5.186;2023-05-10T04:53:03;33.43;;;20.63;;
18726;SDS011;9492;51.888;5.186;2023-05-10T04:55:29;34.73;;;21.90;;
18726;SDS011;9492;51.888;5.186;2023-05-10T04:57:55;31.70;;;19.87;;
18726;SDS011;9492;51.888;5.186;2023-05-10T05:00:22;35.90;;;22.80;;
18726;SDS011;9492;51.888;5.186;2023-05-10T05:02:48;32.83;;;21.27;;
18726;SDS011;9492;51.888;5.186;2023-05-10T05:05:14;33.70;;;22.00;;
18726;SDS011;9492;51.888;5.186;2023-05-10T05:07:40;30.10;;;20.63;;
18726;SDS011;9492;51.888;5.186;2023-05-10T05:10:06;36.57;;;20.30;;
18726;SDS011;9492;51.888;5.186;2023-05-10T05:12:32;33.43;;;23.20;;
18726;SDS011;9492;51.888;5.186;2023-05-10T05:14:58;36.30;;;20.30;;
18726;SDS011;9492;51.888;5.186;2023-05-10T05:17:25;30.90;;;19.10;;
18726;SDS011;9492;51.888;5.186;2023-05-10T05:19:51;30.23;;;20.13;;
18726;SDS011;9492;51.888;5.186;2023-05-10T05:22:17;31.13;;;19.37;;
18726;SDS011;9492;51.888;5.186;2023-05-10T05:24:44;28.90;;;18.90;;
18726;SDS011;9492;51.888;5.186;2023-05-10T05:27:10;28.37;;;18.30;;
18726;SDS011;9492;51.888;5.186;2023-05-10T05:29:36;29.57;;;19.20;;
18726;SDS011;9492;51.888;5.186;2023-05-10T05:32:02;28.73;;;19.23;;
18726;SDS011;9492;51.888;5.186;2023-05-10T05:34:28;28.57;;;18.10;;
18726;SDS011;9492;51.888;5.186;2023-05-10T05:36:54;33.67;;;20.30;;
18726;SDS011;9492;51.888;5.186;2023-05-10T05:39:20;38.30;;;24.83;;
18726;SDS011;9492;51.888;5.186;2023-05-10T05:41:47;37.23;;;22.43;;
18726;SDS011;9492;51.888;5.186;2023-05-10T05:44:13;29.47;;;21.73;;
18726;SDS011;9492;51.888;5.186;2023-05-10T05:46:39;32.70;;;21.33;;
18726;SDS011;9492;51.888;5.186;2023-05-10T05:49:05;37.57;;;22.93;;
18726;SDS011;9492;51.888;5.186;2023-05-10T05:51:31;35.73;;;22.83;;
18726;SDS011;9492;51.888;5.186;2023-05-10T05:53:57;36.43;;;25.70;;
18726;SDS011;9492;51.888;5.186;2023-05-10T05:56:23;41.73;;;25.80;;
18726;SDS011;9492;51.888;5.186;2023-05-10T05:58:50;37.77;;;24.03;;
18726;SDS011;9492;51.888;5.186;2023-05-10T06:01:16;35.77;;;24.00;;
18726;SDS011;9492;51.888;5.186;2023-05-10T06:03:42;37.70;;;25.30;;
18726;SDS011;9492;51.888;5.186;2023-05-10T06:06:08;38.77;;;25.23;;
18726;SDS011;9492;51.888;5.186;2023-05-10T06:08:34;39.93;;;25.33;;
18726;SDS011;9492;51.888;5.186;2023-05-10T06:11:00;42.17;;;26.20;;
18726;SDS011;9492;51.888;5.186;2023-05-10T06:13:26;36.10;;;24.37;;
18726;SDS011;9492;51.888;5.186;2023-05-10T06:16:00;37.20;;;24.90;;
18726;SDS011;9492;51.888;5.186;2023-05-10T06:18:26;35.37;;;24.03;;
18726;SDS011;9492;51.888;5.186;2023-05-10T06:20:52;41.60;;;25.03;;
18726;SDS011;9492;51.888;5.186;2023-05-10T06:23:18;36.30;;;24.10;;
18726;SDS011;9492;51.888;5.186;2023-05-10T06:25:44;38.47;;;25.80;;
18726;SDS011;9492;51.888;5.186;2023-05-10T06:28:10;34.57;;;24.30;;
18726;SDS011;9492;51.888;5.186;2023-05-10T06:30:36;36.33;;;26.87;;
18726;SDS011;9492;51.888;5.186;2023-05-10T06:33:02;37.73;;;25.57;;
18726;SDS011;9492;51.888;5.186;2023-05-10T06:35:28;36.87;;;24.90;;
18726;SDS011;9492;51.888;5.186;2023-05-10T06:37:54;37.57;;;24.20;;
18726;SDS011;9492;51.888;5.186;2023-05-10T06:40:20;40.40;;;26.97;;
18726;SDS011;9492;51.888;5.186;2023-05-10T06:42:47;36.87;;;24.97;;
18726;SDS011;9492;51.888;5.186;2023-05-10T06:45:13;43.03;;;26.13;;
18726;SDS011;9492;51.888;5.186;2023-05-10T06:47:40;38.63;;;25.83;;
18726;SDS011;9492;51.888;5.186;2023-05-10T06:50:07;38.67;;;25.93;;
18726;SDS011;9492;51.888;5.186;2023-05-10T06:52:33;38.47;;;25.20;;
18726;SDS011;9492;51.888;5.186;2023-05-10T06:54:59;44.37;;;27.20;;
18726;SDS011;9492;51.888;5.186;2023-05-10T06:57:25;38.20;;;26.73;;
18726;SDS011;9492;51.888;5.186;2023-05-10T06:59:51;40.23;;;25.73;;
18726;SDS011;9492;51.888;5.186;2023-05-10T07:02:17;39.30;;;24.13;;
18726;SDS011;9492;51.888;5.186;2023-05-10T07:04:43;34.97;;;23.23;;
18726;SDS011;9492;51.888;5.186;2023-05-10T07:07:09;32.97;;;21.80;;
18726;SDS011;9492;51.888;5.186;2023-05-10T07:09:35;34.87;;;21.40;;
18726;SDS011;9492;51.888;5.186;2023-05-10T07:12:01;34.33;;;22.13;;
18726;SDS011;9492;51.888;5.186;2023-05-10T07:14:28;36.17;;;22.33;;
18726;SDS011;9492;51.888;5.186;2023-05-10T07:16:54;31.60;;;20.83;;
18726;SDS011;9492;51.888;5.186;2023-05-10T07:19:20;32.97;;;20.80;;
18726;SDS011;9492;51.888;5.186;2023-05-10T07:21:46;31.20;;;20.13;;
18726;SDS011;9492;51.888;5.186;2023-05-10T07:24:12;31.27;;;20.03;;
18726;SDS011;9492;51.888;5.186;2023-05-10T07:26:38;30.93;;;20.80;;
18726;SDS011;9492;51.888;5.186;2023-05-10T07:29:04;30.70;;;19.03;;
18726;SDS011;9492;51.888;5.186;2023-05-10T07:31:30;32.07;;;19.13;;
18726;SDS011;9492;51.888;5.186;2023-05-10T07:33:56;31.27;;;19.17;;
18726;SDS011;9492;51.888;5.186;2023-05-10T07:36:22;27.17;;;16.57;;
18726;SDS011;9492;51.888;5.186;2023-05-10T07:38:48;30.63;;;17.60;;
18726;SDS011;9492;51.888;5.186;2023-05-10T07:41:14;24.13;;;15.47;;
18726;SDS011;9492;51.888;5.186;2023-05-10T07:43:40;25.63;;;15.77;;
18726;SDS011;9492;51.888;5.186;2023-05-10T07:46:06;20.87;;;13.17;;
18726;SDS011;9492;51.888;5.186;2023-05-10T07:48:34;17.83;;;11.93;;
18726;SDS011;9492;51.888;5.186;2023-05-10T07:51:00;18.80;;;11.93;;
18726;SDS011;9492;51.888;5.186;2023-05-10T07:53:27;14.70;;;10.30;;
18726;SDS011;9492;51.888;5.186;2023-05-10T07:55:59;13.53;;;10.20;;
18726;SDS011;9492;51.888;5.186;2023-05-10T07:58:25;13.60;;;9.40;;
18726;SDS011;9492;51.888;5.186;2023-05-10T08:00:51;7.47;;;6.53;;
18726;SDS011;9492;51.888;5.186;2023-05-10T08:03:17;8.17;;;6.73;;
18726;SDS011;9492;51.888;5.186;2023-05-10T08:05:43;13.27;;;8.53;;
18726;SDS011;9492;51.888;5.186;2023-05-10T08:08:09;10.67;;;8.17;;
18726;SDS011;9492;51.888;5.186;2023-05-10T08:10:35;12.30;;;8.17;;
18726;SDS011;9492;51.888;5.186;2023-05-10T08:13:01;10.97;;;7.40;;
18726;SDS011;9492;51.888;5.186;2023-05-10T08:15:27;9.13;;;6.80;;
18726;SDS011;9492;51.888;5.186;2023-05-10T08:17:53;8.27;;;6.47;;
18726;SDS011;9492;51.888;5.186;2023-05-10T08:20:19;8.67;;;6.43;;
18726;SDS011;9492;51.888;5.186;2023-05-10T08:22:45;5.90;;;4.83;;
18726;SDS011;9492;51.888;5.186;2023-05-10T08:25:11;6.83;;;5.07;;
18726;SDS011;9492;51.888;5.186;2023-05-10T08:27:37;6.97;;;5.10;;
18726;SDS011;9492;51.888;5.186;2023-05-10T08:30:03;7.77;;;5.60;;
18726;SDS011;9492;51.888;5.186;2023-05-10T08:32:30;7.23;;;5.10;;
18726;SDS011;9492;51.888;5.186;2023-05-10T08:34:55;6.07;;;4.97;;
18726;SDS011;9492;51.888;5.186;2023-05-10T08:37:22;6.53;;;5.10;;
18726;SDS011;9492;51.888;5.186;2023-05-10T08:39:48;7.77;;;4.77;;
18726;SDS011;9492;51.888;5.186;2023-05-10T08:42:16;6.03;;;4.60;;
18726;SDS011;9492;51.888;5.186;2023-05-10T08:44:45;5.77;;;4.10;;
18726;SDS011;9492;51.888;5.186;2023-05-10T08:47:15;4.53;;;4.13;;
18726;SDS011;9492;51.888;5.186;2023-05-10T08:49:42;8.17;;;5.33;;
18726;SDS011;9492;51.888;5.186;2023-05-10T08:52:08;4.80;;;4.00;;
18726;SDS011;9492;51.888;5.186;2023-05-10T08:54:37;4.30;;;3.90;;
18726;SDS011;9492;51.888;5.186;2023-05-10T08:57:03;4.50;;;3.43;;
18726;SDS011;9492;51.888;5.186;2023-05-10T08:59:29;5.50;;;3.77;;
18726;SDS011;9492;51.888;5.186;2023-05-10T09:01:56;5.33;;;3.97;;
18726;SDS011;9492;51.888;5.186;2023-05-10T09:04:22;3.50;;;3.20;;
18726;SDS011;9492;51.888;5.186;2023-05-10T09:06:48;3.50;;;3.20;;
18726;SDS011;9492;51.888;5.186;2023-05-10T09:09:15;4.37;;;3.67;;
18726;SDS011;9492;51.888;5.186;2023-05-10T09:11:41;5.17;;;3.93;;
18726;SDS011;9492;51.888;5.186;2023-05-10T09:14:07;4.10;;;3.70;;
18726;SDS011;9492;51.888;5.186;2023-05-10T09:16:34;4.10;;;3.70;;
18726;SDS011;9492;51.888;5.186;2023-05-10T09:19:00;3.97;;;3.53;;
18726;SDS011;9492;51.888;5.186;2023-05-10T09:21:26;4.20;;;3.80;;
18726;SDS011;9492;51.888;5.186;2023-05-10T09:23:52;4.83;;;4.33;;
18726;SDS011;9492;51.888;5.186;2023-05-10T09:26:22;4.23;;;3.83;;
18726;SDS011;9492;51.888;5.186;2023-05-10T09:28:52;5.03;;;4.40;;
18726;SDS011;9492;51.888;5.186;2023-05-10T09:31:19;4.90;;;4.40;;
18726;SDS011;9492;51.888;5.186;2023-05-10T09:33:45;4.53;;;4.00;;
18726;SDS011;9492;51.888;5.186;2023-05-10T09:36:12;5.20;;;4.27;;
18726;SDS011;9492;51.888;5.186;2023-05-10T09:38:53;4.83;;;4.33;;
18726;SDS011;9492;51.888;5.186;2023-05-10T09:41:22;6.43;;;4.67;;
18726;SDS011;9492;51.888;5.186;2023-05-10T09:43:50;4.70;;;4.13;;
18726;SDS011;9492;51.888;5.186;2023-05-10T09:46:23;5.97;;;4.67;;
18726;SDS011;9492;51.888;5.186;2023-05-10T09:48:56;4.30;;;3.87;;
18726;SDS011;9492;51.888;5.186;2023-05-10T09:51:26;5.20;;;3.43;;
18726;SDS011;9492;51.888;5.186;2023-05-10T09:56:49;4.83;;;3.60;;
18726;SDS011;9492;51.888;5.186;2023-05-10T09:59:33;4.77;;;3.17;;
18726;SDS011;9492;51.888;5.186;2023-05-10T10:02:00;5.20;;;3.10;;
18726;SDS011;9492;51.888;5.186;2023-05-10T10:04:43;4.90;;;3.67;;
18726;SDS011;9492;51.888;5.186;2023-05-10T10:07:42;5.03;;;3.37;;
18726;SDS011;9492;51.888;5.186;2023-05-10T10:10:34;4.47;;;3.23;;
18726;SDS011;9492;51.888;5.186;2023-05-10T10:13:00;5.63;;;2.97;;
18726;SDS011;9492;51.888;5.186;2023-05-10T10:15:26;3.33;;;3.03;;
18726;SDS011;9492;51.888;5.186;2023-05-10T10:18:02;3.57;;;3.20;;
18726;SDS011;9492;51.888;5.186;2023-05-10T10:20:44;3.83;;;2.70;;
18726;SDS011;9492;51.888;5.186;2023-05-10T10:23:13;3.93;;;3.43;;
18726;SDS011;9492;51.888;5.186;2023-05-10T10:25:43;5.83;;;4.43;;
18726;SDS011;9492;51.888;5.186;2023-05-10T10:28:51;6.20;;;4.37;;
18726;SDS011;9492;51.888;5.186;2023-05-10T10:31:25;4.93;;;4.43;;
18726;SDS011;9492;51.888;5.186;2023-05-10T10:33:56;4.50;;;3.87;;
18726;SDS011;9492;51.888;5.186;2023-05-10T10:36:24;4.80;;;4.30;;
18726;SDS011;9492;51.888;5.186;2023-05-10T10:41:29;6.27;;;4.80;;
18726;SDS011;9492;51.888;5.186;2023-05-10T10:49:25;7.60;;;5.73;;
18726;SDS011;9492;51.888;5.186;2023-05-10T10:52:52;7.83;;;5.63;;
18726;SDS011;9492;51.888;5.186;2023-05-10T10:54:51;6.17;;;5.57;;
18726;SDS011;9492;51.888;5.186;2023-05-10T10:57:18;7.83;;;6.27;;
18726;SDS011;9492;51.888;5.186;2023-05-10T10:59:44;7.97;;;5.90;;
18726;SDS011;9492;51.888;5.186;2023-05-10T11:04:56;6.87;;;5.53;;
18726;SDS011;9492;51.888;5.186;2023-05-10T11:07:22;8.57;;;6.90;;
18726;SDS011;9492;51.888;5.186;2023-05-10T11:09:48;5.60;;;4.90;;
18726;SDS011;9492;51.888;5.186;2023-05-10T11:12:14;6.77;;;5.93;;
18726;SDS011;9492;51.888;5.186;2023-05-10T11:14:40;7.90;;;5.47;;
18726;SDS011;9492;51.888;5.186;2023-05-10T11:17:25;7.03;;;6.37;;
18726;SDS011;9492;51.888;5.186;2023-05-10T11:20:11;9.77;;;7.20;;
18726;SDS011;9492;51.888;5.186;2023-05-10T11:22:49;6.63;;;6.03;;
18726;SDS011;9492;51.888;5.186;2023-05-10T11:25:18;6.73;;;5.60;;
18726;SDS011;9492;51.888;5.186;2023-05-10T11:27:44;7.27;;;5.57;;
18726;SDS011;9492;51.888;5.186;2023-05-10T11:30:11;5.57;;;4.97;;
18726;SDS011;9492;51.888;5.186;2023-05-10T11:32:37;5.70;;;5.10;;
18726;SDS011;9492;51.888;5.186;2023-05-10T11:35:11;5.20;;;4.70;;
18726;SDS011;9492;51.888;5.186;2023-05-10T11:37:38;4.93;;;4.43;;
18726;SDS011;9492;51.888;5.186;2023-05-10T11:40:07;5.77;;;4.83;;
18726;SDS011;9492;51.888;5.186;2023-05-10T11:42:35;7.73;;;4.70;;
18726;SDS011;9492;51.888;5.186;2023-05-10T11:45:01;4.83;;;4.33;;
18726;SDS011;9492;51.888;5.186;2023-05-10T11:47:27;4.30;;;3.90;;
18726;SDS011;9492;51.888;5.186;2023-05-10T11:49:53;6.77;;;4.70;;
18726;SDS011;9492;51.888;5.186;2023-05-10T11:52:19;5.33;;;4.83;;
18726;SDS011;9492;51.888;5.186;2023-05-10T11:54:52;5.13;;;4.63;;
18726;SDS011;9492;51.888;5.186;2023-05-10T11:57:18;6.53;;;5.00;;
18726;SDS011;9492;51.888;5.186;2023-05-10T11:59:45;5.83;;;5.07;;
18726;SDS011;9492;51.888;5.186;2023-05-10T12:02:13;6.33;;;5.07;;
18726;SDS011;9492;51.888;5.186;2023-05-10T12:04:39;6.20;;;4.87;;
18726;SDS011;9492;51.888;5.186;2023-05-10T12:07:05;6.27;;;5.67;;
18726;SDS011;9492;51.888;5.186;2023-05-10T12:09:31;4.97;;;4.57;;
18726;SDS011;9492;51.888;5.186;2023-05-10T12:11:57;4.17;;;3.87;;
18726;SDS011;9492;51.888;5.186;2023-05-10T12:14:23;3.10;;;2.80;;
18726;SDS011;9492;51.888;5.186;2023-05-10T12:16:49;2.80;;;2.60;;
18726;SDS011;9492;51.888;5.186;2023-05-10T12:19:18;4.03;;;3.73;;
18726;SDS011;9492;51.888;5.186;2023-05-10T12:21:46;5.57;;;5.07;;
18726;SDS011;9492;51.888;5.186;2023-05-10T12:24:12;4.73;;;4.30;;
18726;SDS011;9492;51.888;5.186;2023-05-10T12:26:41;5.33;;;4.83;;
18726;SDS011;9492;51.888;5.186;2023-05-10T12:29:19;5.00;;;4.60;;
18726;SDS011;9492;51.888;5.186;2023-05-10T12:31:58;5.10;;;4.70;;
18726;SDS011;9492;51.888;5.186;2023-05-10T12:34:34;6.33;;;4.77;;
18726;SDS011;9492;51.888;5.186;2023-05-10T12:37:03;4.83;;;4.43;;
18726;SDS011;9492;51.888;5.186;2023-05-10T12:39:42;4.90;;;4.50;;
18726;SDS011;9492;51.888;5.186;2023-05-10T12:42:08;5.90;;;5.30;;
18726;SDS011;9492;51.888;5.186;2023-05-10T12:44:35;6.97;;;5.73;;
18726;SDS011;9492;51.888;5.186;2023-05-10T12:47:01;6.40;;;5.80;;
18726;SDS011;9492;51.888;5.186;2023-05-10T12:49:26;7.90;;;7.07;;
18726;SDS011;9492;51.888;5.186;2023-05-10T12:51:52;8.10;;;6.83;;
18726;SDS011;9492;51.888;5.186;2023-05-10T12:54:18;9.13;;;7.90;;
18726;SDS011;9492;51.888;5.186;2023-05-10T12:56:44;8.80;;;7.60;;
18726;SDS011;9492;51.888;5.186;2023-05-10T12:59:10;7.73;;;7.03;;
18726;SDS011;9492;51.888;5.186;2023-05-10T13:01:36;8.27;;;6.80;;
18726;SDS011;9492;51.888;5.186;2023-05-10T13:04:03;8.13;;;7.40;;
18726;SDS011;9492;51.888;5.186;2023-05-10T13:06:29;8.77;;;7.90;;
18726;SDS011;9492;51.888;5.186;2023-05-10T13:08:55;7.43;;;6.67;;
18726;SDS011;9492;51.888;5.186;2023-05-10T13:11:22;8.67;;;7.77;;
18726;SDS011;9492;51.888;5.186;2023-05-10T13:13:48;9.43;;;8.50;;
18726;SDS011;9492;51.888;5.186;2023-05-10T13:16:14;9.23;;;8.33;;
18726;SDS011;9492;51.888;5.186;2023-05-10T13:18:40;9.23;;;8.30;;
18726;SDS011;9492;51.888;5.186;2023-05-10T13:21:06;10.27;;;8.93;;
18726;SDS011;9492;51.888;5.186;2023-05-10T13:23:32;9.00;;;8.10;;
18726;SDS011;9492;51.888;5.186;2023-05-10T13:25:58;8.93;;;8.03;;
18726;SDS011;9492;51.888;5.186;2023-05-10T13:28:24;10.77;;;9.67;;
18726;SDS011;9492;51.888;5.186;2023-05-10T13:30:51;9.83;;;8.93;;
18726;SDS011;9492;51.888;5.186;2023-05-10T13:33:17;10.53;;;8.40;;
18726;SDS011;9492;51.888;5.186;2023-05-10T13:35:43;9.87;;;8.50;;
18726;SDS011;9492;51.888;5.186;2023-05-10T13:38:09;8.67;;;7.83;;
18726;SDS011;9492;51.888;5.186;2023-05-10T13:40:35;8.47;;;7.67;;
18726;SDS011;9492;51.888;5.186;2023-05-10T13:43:01;9.20;;;8.30;;
18726;SDS011;9492;51.888;5.186;2023-05-10T13:45:27;8.67;;;7.63;;
18726;SDS011;9492;51.888;5.186;2023-05-10T13:47:53;9.13;;;8.23;;
18726;SDS011;9492;51.888;5.186;2023-05-10T13:50:19;9.50;;;7.60;;
18726;SDS011;9492;51.888;5.186;2023-05-10T13:52:45;8.70;;;7.63;;
18726;SDS011;9492;51.888;5.186;2023-05-10T13:55:12;8.60;;;7.63;;
18726;SDS011;9492;51.888;5.186;2023-05-10T13:57:38;8.23;;;7.43;;
18726;SDS011;9492;51.888;5.186;2023-05-10T14:00:05;9.83;;;7.73;;
18726;SDS011;9492;51.888;5.186;2023-05-10T14:02:31;9.83;;;7.10;;
18726;SDS011;9492;51.888;5.186;2023-05-10T14:04:57;8.73;;;7.17;;
18726;SDS011;9492;51.888;5.186;2023-05-10T14:07:23;8.53;;;7.00;;
18726;SDS011;9492;51.888;5.186;2023-05-10T14:09:49;8.77;;;6.80;;
18726;SDS011;9492;51.888;5.186;2023-05-10T14:12:15;8.70;;;6.73;;
18726;SDS011;9492;51.888;5.186;2023-05-10T14:14:41;9.13;;;7.17;;
18726;SDS011;9492;51.888;5.186;2023-05-10T14:17:07;9.07;;;7.20;;
18726;SDS011;9492;51.888;5.186;2023-05-10T14:19:33;11.50;;;7.73;;
18726;SDS011;9492;51.888;5.186;2023-05-10T14:21:59;10.37;;;6.87;;
18726;SDS011;9492;51.888;5.186;2023-05-10T14:24:25;9.23;;;7.03;;
18726;SDS011;9492;51.888;5.186;2023-05-10T14:26:51;8.23;;;6.63;;
18726;SDS011;9492;51.888;5.186;2023-05-10T14:29:18;8.77;;;7.50;;
18726;SDS011;9492;51.888;5.186;2023-05-10T14:31:44;9.63;;;7.70;;
18726;SDS011;9492;51.888;5.186;2023-05-10T14:34:10;9.37;;;8.23;;
18726;SDS011;9492;51.888;5.186;2023-05-10T14:36:36;8.60;;;7.03;;
18726;SDS011;9492;51.888;5.186;2023-05-10T14:39:02;8.70;;;6.67;;
18726;SDS011;9492;51.888;5.186;2023-05-10T14:41:29;9.67;;;7.93;;
18726;SDS011;9492;51.888;5.186;2023-05-10T14:43:55;9.07;;;8.07;;
18726;SDS011;9492;51.888;5.186;2023-05-10T14:46:21;9.77;;;7.80;;
18726;SDS011;9492;51.888;5.186;2023-05-10T14:48:47;9.67;;;7.03;;
18726;SDS011;9492;51.888;5.186;2023-05-10T14:51:13;9.00;;;7.93;;
18726;SDS011;9492;51.888;5.186;2023-05-10T14:53:39;9.87;;;8.73;;
18726;SDS011;9492;51.888;5.186;2023-05-10T14:56:05;10.93;;;9.17;;
18726;SDS011;9492;51.888;5.186;2023-05-10T14:58:31;12.33;;;9.10;;
18726;SDS011;9492;51.888;5.186;2023-05-10T15:00:57;9.33;;;7.97;;
18726;SDS011;9492;51.888;5.186;2023-05-10T15:03:23;13.00;;;8.97;;
18726;SDS011;9492;51.888;5.186;2023-05-10T15:05:49;9.73;;;8.17;;
18726;SDS011;9492;51.888;5.186;2023-05-10T15:08:16;10.27;;;7.27;;
18726;SDS011;9492;51.888;5.186;2023-05-10T15:10:42;9.43;;;7.63;;
18726;SDS011;9492;51.888;5.186;2023-05-10T15:13:08;9.73;;;7.27;;
18726;SDS011;9492;51.888;5.186;2023-05-10T15:15:34;7.80;;;6.47;;
18726;SDS011;9492;51.888;5.186;2023-05-10T15:18:00;8.20;;;7.17;;